createdAt,value
2022-12-11T00:00:47.252Z,1.48
2022-12-11T00:03:16.178Z,1.49
2022-12-11T00:05:43.612Z,1.50
2022-12-11T00:08:10.102Z,1.47
2022-12-11T00:10:38.087Z,1.46
2022-12-11T00:13:05.069Z,1.49
2022-12-11T00:15:31.436Z,1.47
2022-12-11T00:17:58.096Z,1.46
2022-12-11T00:20:24.853Z,1.43
2022-12-11T00:22:51.315Z,1.29
2022-12-11T00:25:17.962Z,1.31
2022-12-11T00:27:46.815Z,1.39
2022-12-11T00:30:14.262Z,1.28
2022-12-11T00:32:40.847Z,1.24
2022-12-11T00:35:07.435Z,1.28
2022-12-11T00:37:33.909Z,1.39
2022-12-11T00:40:00.582Z,1.39
2022-12-11T00:42:26.934Z,1.25
2022-12-11T00:44:54.880Z,1.31
2022-12-11T00:47:21.508Z,1.34
2022-12-11T00:49:49.924Z,1.20
2022-12-11T00:52:17.948Z,1.17
2022-12-11T00:54:45.097Z,1.28
2022-12-11T00:57:11.417Z,1.25
2022-12-11T00:59:37.854Z,1.23
2022-12-11T01:02:04.455Z,1.23
2022-12-11T01:04:30.728Z,1.12
2022-12-11T01:06:57.010Z,1.19
2022-12-11T01:09:42.524Z,1.20
2022-12-11T01:12:08.836Z,1.07
2022-12-11T01:14:35.500Z,1.16
2022-12-11T01:17:01.822Z,1.15
2022-12-11T01:19:28.581Z,1.14
2022-12-11T01:21:55.264Z,1.15
2022-12-11T01:24:21.601Z,1.13
2022-12-11T01:26:47.914Z,1.11
2022-12-11T01:29:14.534Z,1.10
2022-12-11T01:31:41.381Z,1.09
2022-12-11T01:34:07.684Z,1.09
2022-12-11T01:36:34.250Z,1.05
2022-12-11T01:39:00.593Z,1.05
2022-12-11T01:41:26.913Z,0.97
2022-12-11T01:44:06.682Z,0.96
2022-12-11T01:46:35.339Z,1.02
2022-12-11T01:49:04.923Z,0.86
2022-12-11T01:51:33.908Z,0.96
2022-12-11T01:54:04.020Z,0.86
2022-12-11T01:56:31.488Z,0.89
2022-12-11T01:59:01.308Z,0.80
2022-12-11T02:01:37.638Z,0.91
2022-12-11T02:04:04.719Z,0.87
2022-12-11T02:06:36.316Z,0.87
2022-12-11T02:09:04.397Z,0.84
2022-12-11T02:11:48.210Z,0.76
2022-12-11T02:14:49.935Z,0.67
2022-12-11T02:17:34.743Z,0.82
2022-12-11T02:20:00.931Z,0.81
2022-12-11T02:22:34.412Z,0.80
2022-12-11T02:25:15.986Z,0.81
2022-12-11T02:27:46.837Z,0.78
2022-12-11T02:30:15.525Z,0.79
2022-12-11T02:32:54.432Z,0.78
2022-12-11T02:35:28.455Z,0.76
2022-12-11T02:38:03.871Z,0.67
2022-12-11T02:40:32.615Z,0.79
2022-12-11T02:43:01.420Z,0.78
2022-12-11T02:45:28.868Z,0.76
2022-12-11T02:47:57.619Z,0.75
2022-12-11T02:50:23.989Z,0.66
2022-12-11T02:52:52.159Z,0.73
2022-12-11T02:55:19.515Z,0.70
2022-12-11T02:57:51.989Z,0.69
2022-12-11T03:00:19.315Z,0.64
2022-12-11T03:02:46.084Z,0.73
2022-12-11T03:05:13.435Z,0.57
2022-12-11T03:07:42.206Z,0.72
2022-12-11T03:10:10.742Z,0.71
2022-12-11T03:12:39.400Z,0.59
2022-12-11T03:15:10.658Z,0.72
2022-12-11T03:17:58.779Z,0.70
2022-12-11T03:20:37.086Z,0.68
2022-12-11T03:23:22.313Z,0.69
2022-12-11T03:25:56.127Z,0.73
2022-12-11T03:28:43.666Z,0.68
2022-12-11T03:31:14.445Z,0.67
2022-12-11T03:33:42.281Z,0.65
2022-12-11T03:36:16.628Z,0.64
2022-12-11T03:38:46.082Z,0.54
2022-12-11T03:41:13.298Z,0.61
2022-12-11T03:43:40.215Z,0.56
2022-12-11T03:46:08.229Z,0.62
2022-12-11T03:48:38.760Z,0.45
2022-12-11T03:51:06.273Z,0.60
2022-12-11T03:53:34.540Z,0.46
2022-12-11T03:56:01.340Z,0.59
2022-12-11T03:58:27.608Z,0.61
2022-12-11T04:00:54.282Z,0.61
2022-12-11T04:03:20.945Z,0.62
2022-12-11T04:05:49.357Z,0.61
2022-12-11T04:08:16.946Z,0.61
2022-12-11T04:10:43.821Z,0.53
2022-12-11T04:13:10.747Z,0.44
2022-12-11T04:15:38.289Z,0.53
2022-12-11T04:18:24.090Z,0.57
2022-12-11T04:21:12.007Z,0.56
2022-12-11T04:23:57.101Z,0.56
2022-12-11T04:26:23.430Z,0.52
2022-12-11T04:28:50.037Z,0.52
2022-12-11T04:31:19.009Z,0.48
2022-12-11T04:33:45.394Z,0.50
2022-12-11T04:36:12.695Z,0.50
2022-12-11T04:38:39.221Z,0.45
2022-12-11T04:41:09.572Z,0.38
2022-12-11T04:43:36.515Z,0.30
2022-12-11T04:46:08.714Z,0.42
2022-12-11T04:48:35.827Z,0.40
2022-12-11T04:51:02.407Z,0.39
2022-12-11T04:53:28.767Z,0.40
2022-12-11T04:55:55.594Z,0.37
2022-12-11T04:58:23.098Z,0.35
2022-12-11T05:00:49.785Z,0.29
2022-12-11T05:03:16.146Z,0.35
2022-12-11T05:05:48.560Z,0.27
2022-12-11T05:08:14.917Z,0.37
2022-12-11T05:10:45.760Z,0.37
2022-12-11T05:13:15.191Z,0.35
2022-12-11T05:15:41.536Z,0.37
2022-12-11T05:18:07.835Z,0.32
2022-12-11T05:20:34.395Z,0.39
2022-12-11T05:23:00.690Z,0.34
2022-12-11T05:25:27.025Z,0.32
2022-12-11T05:27:53.589Z,0.32
2022-12-11T05:30:19.956Z,0.32
2022-12-11T05:32:46.249Z,0.30
2022-12-11T05:35:13.004Z,0.21
2022-12-11T05:37:39.573Z,0.27
2022-12-11T05:40:06.467Z,0.28
2022-12-11T05:42:33.960Z,0.33
2022-12-11T05:45:00.251Z,0.15
2022-12-11T05:47:26.573Z,0.11
2022-12-11T05:49:53.156Z,0.17
2022-12-11T05:52:19.504Z,0.29
2022-12-11T05:54:49.266Z,0.26
2022-12-11T05:57:16.211Z,0.19
2022-12-11T05:59:42.510Z,0.11
2022-12-11T06:02:08.923Z,0.32
2022-12-11T06:04:35.572Z,0.33
2022-12-11T06:07:01.869Z,0.32
2022-12-11T06:09:28.164Z,0.23
2022-12-11T06:11:54.740Z,0.32
2022-12-11T06:14:21.066Z,0.32
2022-12-11T06:16:47.445Z,0.33
2022-12-11T06:19:15.296Z,0.26
2022-12-11T06:21:42.136Z,0.33
2022-12-11T06:24:11.181Z,0.32
2022-12-11T06:26:37.975Z,0.34
2022-12-11T06:29:08.889Z,0.34
2022-12-11T06:31:37.288Z,0.16
2022-12-11T06:34:03.913Z,0.33
2022-12-11T06:36:30.216Z,0.31
2022-12-11T06:38:56.562Z,0.33
2022-12-11T06:41:23.176Z,0.32
2022-12-11T06:43:50.693Z,0.33
2022-12-11T06:46:19.044Z,0.33
2022-12-11T06:48:46.759Z,0.36
2022-12-11T06:51:15.312Z,0.34
2022-12-11T06:53:41.847Z,0.35
2022-12-11T06:56:13.563Z,0.37
2022-12-11T06:58:40.900Z,0.25
2022-12-11T07:01:16.028Z,0.31
2022-12-11T07:03:42.443Z,0.36
2022-12-11T07:06:09.289Z,0.32
2022-12-11T07:08:35.649Z,0.40
2022-12-11T07:11:06.421Z,0.38
2022-12-11T07:13:33.768Z,0.36
2022-12-11T07:16:01.900Z,0.39
2022-12-11T07:18:28.428Z,0.36
2022-12-11T07:20:55.012Z,0.33
2022-12-11T07:23:21.374Z,0.25
2022-12-11T07:25:47.916Z,0.27
2022-12-11T07:28:16.837Z,0.30
2022-12-11T07:30:43.404Z,0.28
2022-12-11T07:33:09.721Z,0.29
2022-12-11T07:35:36.773Z,0.29
2022-12-11T07:38:03.203Z,0.28
2022-12-11T07:40:29.528Z,0.26
2022-12-11T07:42:56.131Z,0.24
2022-12-11T07:45:22.500Z,0.21
2022-12-11T07:47:48.836Z,0.04
2022-12-11T07:50:15.742Z,0.19
2022-12-11T07:52:42.067Z,0.17
2022-12-11T07:55:08.914Z,0.14
2022-12-11T07:57:35.812Z,0.10
2022-12-11T08:00:02.156Z,0.03
2022-12-11T08:02:38.469Z,0.10
2022-12-11T08:05:05.775Z,0.13
2022-12-11T08:07:35.406Z,0.12
2022-12-11T08:10:02.284Z,-0.04
2022-12-11T08:12:28.874Z,-0.02
2022-12-11T08:14:55.246Z,0.02
2022-12-11T08:17:25.898Z,0.10
2022-12-11T08:19:55.580Z,0.11
2022-12-11T08:22:21.857Z,0.10
2022-12-11T08:24:48.113Z,0.11
2022-12-11T08:27:14.735Z,0.10
2022-12-11T08:29:41.064Z,0.11
2022-12-11T08:32:12.064Z,0.09
2022-12-11T08:34:39.130Z,0.12
2022-12-11T08:37:05.461Z,0.08
2022-12-11T08:39:31.731Z,0.11
2022-12-11T08:41:58.311Z,0.12
2022-12-11T08:44:26.785Z,0.15
2022-12-11T08:46:53.034Z,0.16
2022-12-11T08:49:19.633Z,0.17
2022-12-11T08:51:45.949Z,0.13
2022-12-11T08:54:12.276Z,0.17
2022-12-11T08:56:38.870Z,-0.01
2022-12-11T08:59:06.304Z,0.18
2022-12-11T09:01:32.982Z,0.25
2022-12-11T09:03:59.597Z,0.20
2022-12-11T09:06:28.026Z,0.29
2022-12-11T09:08:56.126Z,0.36
2022-12-11T09:11:25.482Z,0.42
2022-12-11T09:13:52.335Z,0.34
2022-12-11T09:16:21.157Z,0.32
2022-12-11T09:18:49.233Z,0.35
2022-12-11T09:21:17.924Z,0.32
2022-12-11T09:23:44.724Z,0.41
2022-12-11T09:26:14.044Z,0.42
2022-12-11T09:28:44.402Z,0.36
2022-12-11T09:31:24.876Z,0.35
2022-12-11T09:33:54.401Z,0.39
2022-12-11T09:36:20.990Z,0.34
2022-12-11T09:38:48.113Z,0.35
2022-12-11T09:41:23.195Z,0.29
2022-12-11T09:44:11.131Z,0.41
2022-12-11T09:46:37.983Z,0.41
2022-12-11T09:49:05.209Z,0.44
2022-12-11T09:51:44.363Z,0.45
2022-12-11T09:54:13.671Z,0.33
2022-12-11T09:56:44.853Z,0.51
2022-12-11T09:59:26.556Z,0.62
2022-12-11T10:01:57.209Z,0.60
2022-12-11T10:05:00.219Z,0.56
2022-12-11T10:08:16.486Z,0.58
2022-12-11T10:11:03.337Z,0.62
2022-12-11T10:13:42.108Z,0.65
2022-12-11T10:16:20.996Z,0.70
2022-12-11T10:18:48.797Z,0.78
2022-12-11T10:21:16.859Z,0.85
2022-12-11T10:23:57.001Z,0.91
2022-12-11T10:26:23.656Z,0.94
2022-12-11T10:28:50.190Z,1.03
2022-12-11T10:31:27.882Z,1.07
2022-12-11T10:34:00.756Z,1.02
2022-12-11T10:36:32.946Z,1.18
2022-12-11T10:38:59.538Z,1.23
2022-12-11T10:41:41.549Z,1.27
2022-12-11T10:44:21.550Z,1.29
2022-12-11T10:47:07.282Z,1.32
2022-12-11T10:49:35.499Z,1.38
2022-12-11T10:52:02.643Z,1.39
2022-12-11T10:54:41.616Z,1.37
2022-12-11T10:57:10.521Z,1.35
2022-12-11T10:59:46.276Z,1.39
2022-12-11T11:02:25.017Z,1.41
2022-12-11T11:04:51.819Z,1.55
2022-12-11T11:07:18.312Z,1.59
2022-12-11T11:09:44.742Z,1.77
2022-12-11T11:12:19.505Z,1.81
2022-12-11T11:14:46.108Z,1.90
2022-12-11T11:17:17.049Z,1.83
2022-12-11T11:19:46.972Z,1.81
2022-12-11T11:22:17.050Z,1.80
2022-12-11T11:24:54.336Z,1.86
2022-12-11T11:27:27.110Z,1.91
2022-12-11T11:29:58.974Z,2.03
2022-12-11T11:32:36.891Z,1.90
2022-12-11T11:35:12.568Z,2.17
2022-12-11T11:37:42.211Z,2.33
2022-12-11T11:40:18.518Z,2.24
2022-12-11T11:42:52.777Z,2.08
2022-12-11T11:45:29.683Z,2.18
2022-12-11T11:48:16.440Z,1.98
2022-12-11T11:50:45.743Z,2.13
2022-12-11T11:53:18.183Z,2.18
2022-12-11T11:56:06.073Z,2.15
2022-12-11T11:58:40.958Z,2.31
2022-12-11T12:01:15.746Z,2.25
2022-12-11T12:03:42.394Z,2.33
2022-12-11T12:06:37.063Z,2.29
2022-12-11T12:09:15.739Z,2.34
2022-12-11T12:12:24.672Z,2.25
2022-12-11T12:15:01.927Z,2.32
2022-12-11T12:17:43.069Z,2.25
2022-12-11T12:20:28.577Z,2.14
2022-12-11T12:23:15.783Z,2.25
2022-12-11T12:25:51.677Z,2.27
2022-12-11T12:28:36.539Z,2.42
2022-12-11T12:31:13.526Z,2.18
2022-12-11T12:34:07.735Z,2.19
2022-12-11T12:36:44.290Z,2.29
2022-12-11T12:39:35.807Z,2.20
2022-12-11T12:42:17.259Z,2.19
2022-12-11T12:45:27.691Z,2.31
2022-12-11T12:47:54.303Z,2.23
2022-12-11T12:50:24.133Z,2.20
2022-12-11T12:52:52.027Z,2.14
2022-12-11T12:55:23.085Z,2.10
2022-12-11T12:57:54.664Z,2.02
2022-12-11T13:00:29.791Z,2.09
2022-12-11T13:02:56.490Z,2.02
2022-12-11T13:05:43.890Z,2.16
2022-12-11T13:08:11.301Z,2.22
2022-12-11T13:10:40.456Z,1.96
2022-12-11T13:13:30.985Z,2.14
2022-12-11T13:16:07.770Z,2.09
2022-12-11T13:18:37.250Z,2.03
2022-12-11T13:21:23.732Z,1.99
2022-12-11T13:23:50.126Z,1.93
2022-12-11T13:26:29.706Z,1.89
2022-12-11T13:28:56.339Z,1.80
2022-12-11T13:31:23.023Z,1.76
2022-12-11T13:33:52.195Z,1.75
2022-12-11T13:36:24.142Z,1.69
2022-12-11T13:39:17.421Z,1.74
2022-12-11T13:41:47.847Z,1.68
2022-12-11T13:44:28.045Z,1.54
2022-12-11T13:46:57.397Z,1.63
2022-12-11T13:49:26.396Z,1.47
2022-12-11T13:51:58.431Z,1.36
2022-12-11T13:54:25.965Z,1.34
2022-12-11T13:57:01.483Z,1.44
2022-12-11T13:59:31.583Z,1.36
2022-12-11T14:02:01.355Z,1.35
2022-12-11T14:04:28.697Z,1.19
2022-12-11T14:06:56.301Z,1.20
2022-12-11T14:09:24.471Z,1.23
2022-12-11T14:11:56.732Z,1.13
2022-12-11T14:14:42.636Z,1.21
2022-12-11T14:17:20.888Z,1.20
2022-12-11T14:19:48.028Z,1.18
2022-12-11T14:22:23.003Z,1.18
2022-12-11T14:24:51.324Z,1.18
2022-12-11T14:27:19.054Z,1.11
2022-12-11T14:29:45.978Z,1.14
2022-12-11T14:32:36.725Z,1.04
2022-12-11T14:35:06.600Z,1.12
2022-12-11T14:37:34.660Z,1.09
2022-12-11T14:40:04.381Z,1.05
2022-12-11T14:42:34.277Z,0.98
2022-12-11T14:45:21.555Z,0.92
2022-12-11T14:47:48.610Z,0.81
2022-12-11T14:50:26.775Z,0.75
2022-12-11T14:53:17.770Z,0.81
2022-12-11T14:55:44.991Z,0.79
2022-12-11T14:58:28.555Z,0.64
2022-12-11T15:01:06.690Z,0.77
2022-12-11T15:03:38.405Z,0.78
2022-12-11T15:06:28.321Z,0.67
2022-12-11T15:08:55.427Z,0.80
2022-12-11T15:11:22.471Z,0.65
2022-12-11T15:13:56.517Z,0.80
2022-12-11T15:16:25.463Z,0.76
2022-12-11T15:18:53.155Z,0.75
2022-12-11T15:21:19.943Z,0.65
2022-12-11T15:23:46.442Z,0.74
2022-12-11T15:26:12.785Z,0.73
2022-12-11T15:28:39.463Z,0.63
2022-12-11T15:31:20.925Z,0.67
2022-12-11T15:33:47.986Z,0.66
2022-12-11T15:36:33.817Z,0.63
2022-12-11T15:39:00.737Z,0.61
2022-12-11T15:41:28.551Z,0.42
2022-12-11T15:43:58.899Z,0.39
2022-12-11T15:46:25.391Z,0.42
2022-12-11T15:48:52.027Z,0.43
2022-12-11T15:51:18.358Z,0.43
2022-12-11T15:53:44.647Z,0.40
2022-12-11T15:56:17.474Z,0.35
2022-12-11T15:58:47.649Z,0.48
2022-12-11T16:01:14.362Z,0.48
2022-12-11T16:03:40.988Z,0.46
2022-12-11T16:06:10.049Z,0.45
2022-12-11T16:08:36.402Z,0.46
2022-12-11T16:11:03.040Z,0.43
2022-12-11T16:13:29.757Z,0.42
2022-12-11T16:15:58.293Z,0.36
2022-12-11T16:18:26.390Z,0.39
2022-12-11T16:20:52.908Z,0.39
2022-12-11T16:23:19.669Z,0.38
2022-12-11T16:25:46.890Z,0.26
2022-12-11T16:28:14.860Z,0.35
2022-12-11T16:30:43.481Z,0.34
2022-12-11T16:33:13.075Z,0.33
2022-12-11T16:35:40.246Z,0.17
2022-12-11T16:38:07.792Z,0.32
2022-12-11T16:40:34.423Z,0.24
2022-12-11T16:43:00.671Z,0.21
2022-12-11T16:45:27.760Z,0.07
2022-12-11T16:47:54.934Z,0.25
2022-12-11T16:50:21.413Z,0.25
2022-12-11T16:52:47.774Z,0.17
2022-12-11T16:55:15.092Z,0.06
2022-12-11T16:57:41.915Z,0.26
2022-12-11T17:00:10.100Z,0.13
2022-12-11T17:02:36.827Z,0.21
2022-12-11T17:05:03.645Z,0.21
2022-12-11T17:07:31.985Z,0.18
2022-12-11T17:09:58.641Z,0.11
2022-12-11T17:12:27.508Z,0.15
2022-12-11T17:14:54.972Z,0.12
2022-12-11T17:17:21.646Z,0.06
2022-12-11T17:19:47.927Z,0.10
2022-12-11T17:22:14.262Z,0.07
2022-12-11T17:24:40.891Z,0.07
2022-12-11T17:27:07.162Z,0.07
2022-12-11T17:29:33.455Z,0.01
2022-12-11T17:32:00.151Z,0.07
2022-12-11T17:34:26.474Z,0.05
2022-12-11T17:36:52.821Z,0.04
2022-12-11T17:39:19.432Z,0.06
2022-12-11T17:41:45.738Z,0.04
2022-12-11T17:44:12.014Z,0.03
2022-12-11T17:46:38.597Z,0.03
2022-12-11T17:49:05.484Z,-0.06
2022-12-11T17:51:31.906Z,0.03
2022-12-11T17:53:58.505Z,0.04
2022-12-11T17:56:25.574Z,0.07
2022-12-11T17:58:51.932Z,0.07
2022-12-11T18:01:19.478Z,0.06
2022-12-11T18:03:47.017Z,-0.03
2022-12-11T18:06:15.605Z,0.05
2022-12-11T18:08:42.557Z,0.05
2022-12-11T18:11:14.745Z,-0.06
2022-12-11T18:13:41.451Z,0.00
2022-12-11T18:16:12.847Z,0.00
2022-12-11T18:18:40.201Z,-0.07
2022-12-11T18:21:06.772Z,-0.08
2022-12-11T18:23:33.464Z,-0.01
2022-12-11T18:26:00.427Z,0.02
2022-12-11T18:28:26.891Z,-0.07
2022-12-11T18:30:53.576Z,-0.02
2022-12-11T18:33:21.288Z,-0.08
2022-12-11T18:35:49.315Z,-0.08
2022-12-11T18:38:15.581Z,0.02
2022-12-11T18:40:42.207Z,0.03
2022-12-11T18:43:08.519Z,-0.11
2022-12-11T18:45:35.155Z,-0.03
2022-12-11T18:48:01.799Z,-0.02
2022-12-11T18:50:28.190Z,-0.03
2022-12-11T18:52:57.123Z,-0.04
2022-12-11T18:55:23.821Z,-0.05
2022-12-11T18:57:50.200Z,-0.08
2022-12-11T19:00:17.177Z,-0.20
2022-12-11T19:02:43.940Z,-0.07
2022-12-11T19:05:10.804Z,-0.08
2022-12-11T19:07:37.690Z,-0.07
2022-12-11T19:10:05.042Z,-0.08
2022-12-11T19:12:31.379Z,-0.06
2022-12-11T19:14:57.721Z,-0.18
2022-12-11T19:17:24.303Z,-0.08
2022-12-11T19:19:50.626Z,-0.18
2022-12-11T19:22:16.942Z,-0.19
2022-12-11T19:24:43.622Z,-0.23
2022-12-11T19:27:13.495Z,-0.09
2022-12-11T19:29:40.246Z,-0.11
2022-12-11T19:32:06.855Z,-0.11
2022-12-11T19:34:33.300Z,-0.11
2022-12-11T19:36:59.966Z,-0.12
2022-12-11T19:39:26.566Z,-0.12
2022-12-11T19:41:52.848Z,-0.13
2022-12-11T19:44:19.144Z,-0.27
2022-12-11T19:46:45.881Z,-0.26
2022-12-11T19:49:12.585Z,-0.20
2022-12-11T19:51:40.660Z,-0.35
2022-12-11T19:54:11.123Z,-0.20
2022-12-11T19:56:37.596Z,-0.17
2022-12-11T19:59:06.321Z,-0.20
2022-12-11T20:01:35.012Z,-0.21
2022-12-11T20:04:06.109Z,-0.22
2022-12-11T20:06:33.999Z,-0.23
2022-12-11T20:09:01.251Z,-0.30
2022-12-11T20:11:28.445Z,-0.31
2022-12-11T20:13:55.656Z,-0.22
2022-12-11T20:16:33.710Z,-0.32
2022-12-11T20:19:08.587Z,-0.31
2022-12-11T20:21:34.868Z,-0.21
2022-12-11T20:24:01.254Z,-0.24
2022-12-11T20:26:29.580Z,-0.21
2022-12-11T20:28:56.962Z,-0.22
2022-12-11T20:31:24.977Z,-0.20
2022-12-11T20:33:52.905Z,-0.20
2022-12-11T20:36:21.120Z,-0.19
2022-12-11T20:38:48.064Z,-0.25
2022-12-11T20:41:17.603Z,-0.28
2022-12-11T20:43:45.497Z,-0.30
2022-12-11T20:46:14.820Z,-0.26
2022-12-11T20:48:43.327Z,-0.28
2022-12-11T20:51:11.644Z,-0.22
2022-12-11T20:53:38.951Z,-0.24
2022-12-11T20:56:13.679Z,-0.24
2022-12-11T20:58:40.677Z,-0.40
2022-12-11T21:01:07.534Z,-0.27
2022-12-11T21:03:40.440Z,-0.35
2022-12-11T21:06:16.999Z,-0.39
2022-12-11T21:08:43.339Z,-0.32
2022-12-11T21:11:10.568Z,-0.24
2022-12-11T21:13:37.390Z,-0.36
2022-12-11T21:16:06.130Z,-0.22
2022-12-11T21:18:32.982Z,-0.22
2022-12-11T21:20:59.456Z,-0.34
2022-12-11T21:23:26.082Z,-0.23
2022-12-11T21:25:53.227Z,-0.25
2022-12-11T21:28:21.742Z,-0.12
2022-12-11T21:30:48.138Z,-0.15
2022-12-11T21:33:14.912Z,-0.23
2022-12-11T21:35:42.189Z,-0.21
2022-12-11T21:38:08.523Z,-0.11
2022-12-11T21:40:35.227Z,-0.18
2022-12-11T21:43:01.525Z,-0.14
2022-12-11T21:48:14.960Z,-0.32
2022-12-11T21:50:42.649Z,-0.11
2022-12-11T21:53:08.959Z,-0.19
2022-12-11T21:55:35.560Z,-0.10
2022-12-11T21:58:01.892Z,-0.18
2022-12-11T22:00:28.312Z,-0.05
2022-12-11T22:02:54.985Z,-0.06
2022-12-11T22:05:21.349Z,-0.05
2022-12-11T22:07:47.767Z,-0.13
2022-12-11T22:10:14.415Z,-0.15
2022-12-11T22:12:40.743Z,-0.03
2022-12-11T22:15:07.868Z,-0.05
2022-12-11T22:17:34.611Z,-0.12
2022-12-11T22:20:00.939Z,-0.12
2022-12-11T22:22:27.264Z,-0.07
2022-12-11T22:24:53.865Z,-0.15
2022-12-11T22:27:23.714Z,-0.15
2022-12-11T22:29:50.403Z,-0.04
2022-12-11T22:32:17.080Z,-0.15
2022-12-11T22:34:43.348Z,-0.16
2022-12-11T22:37:09.686Z,-0.17
2022-12-11T22:39:36.288Z,-0.10
2022-12-11T22:42:03.294Z,-0.09
2022-12-11T22:44:29.583Z,-0.14
2022-12-11T22:46:56.164Z,-0.25
2022-12-11T22:49:22.478Z,-0.20
2022-12-11T22:51:49.454Z,-0.23
2022-12-11T22:54:16.294Z,-0.24
2022-12-11T22:56:42.590Z,-0.25
2022-12-11T22:59:08.899Z,-0.35
2022-12-11T23:01:35.455Z,-0.28
2022-12-11T23:04:01.735Z,-0.31
2022-12-11T23:06:28.106Z,-0.37
2022-12-11T23:08:57.910Z,-0.35
2022-12-11T23:11:27.239Z,-0.33
2022-12-11T23:13:54.396Z,-0.36
2022-12-11T23:16:22.542Z,-0.37
2022-12-11T23:18:49.891Z,-0.39
2022-12-11T23:21:16.266Z,-0.39
2022-12-11T23:23:42.923Z,-0.37
2022-12-11T23:26:11.996Z,-0.52
2022-12-11T23:28:38.609Z,-0.39
2022-12-11T23:31:05.330Z,-0.39
2022-12-11T23:33:31.753Z,-0.50
2022-12-11T23:35:58.583Z,-0.41
2022-12-11T23:38:25.611Z,-0.43
2022-12-11T23:40:52.477Z,-0.43
2022-12-11T23:43:18.767Z,-0.62
2022-12-11T23:45:45.836Z,-0.44
2022-12-11T23:48:12.856Z,-0.48
2022-12-11T23:50:40.253Z,-0.50
2022-12-11T23:53:06.844Z,-0.51
2022-12-11T23:55:33.206Z,-0.48
2022-12-11T23:57:59.586Z,-0.50
